EFKK/KOK METAR and TAF weather

Enter ICAO airport designator
Station Type Date Time Source
EFKK METAR 2019/04/25 01:50 UTC NOAA

EFKK 250150Z AUTO 00000KT CAVOK M02/M04 Q1025


Station Type Date Time Source
EFKK Decoded METAR 2019/04/25 01:50 UTC NOAA

Kruunupyy, Finland (EFKK) 63-43N 023-09E
Apr 24, 2019 - 09:50 PM EDT / 2019.04.25 0150 UTC
Wind: Calm:0
Visibility: greater than 7 mile(s):0
Temperature: 28 F (-2 C)
Dew Point: 24 F (-4 C)
Relative Humidity: 86%
Pressure (altimeter): 30.27 in. Hg (1025 hPa)
ob: EFKK 250150Z AUTO 00000KT CAVOK M02/M04 Q1025
cycle: 2

Station Type Date Time Source
EFKK TAF 2019/04/22 21:42 UTC NOAA

TAF EFKK 222023Z 2221/2321 18006KT CAVOK

Example: see airport list